sensor_id;sensor_type;location;lat;lon;timestamp;pressure;altitude;pressure_sealevel;temperature;humidity
26697;BME280;14312;52.614;13.496;2022-07-29T00:01:18;101316.41;;;23.59;35.68
26697;BME280;14312;52.614;13.496;2022-07-29T00:04:04;101308.06;;;23.56;35.87
26697;BME280;14312;52.614;13.496;2022-07-29T00:06:50;101309.47;;;23.53;36.07
26697;BME280;14312;52.614;13.496;2022-07-29T00:09:35;101307.69;;;23.49;36.38
26697;BME280;14312;52.614;13.496;2022-07-29T00:12:23;101312.34;;;23.48;36.34
26697;BME280;14312;52.614;13.496;2022-07-29T00:15:10;101309.72;;;23.43;36.33
26697;BME280;14312;52.614;13.496;2022-07-29T00:17:56;101319.59;;;23.39;36.31
26697;BME280;14312;52.614;13.496;2022-07-29T00:20:42;101314.78;;;23.36;36.59
26697;BME280;14312;52.614;13.496;2022-07-29T00:23:27;101313.78;;;23.32;36.52
26697;BME280;14312;52.614;13.496;2022-07-29T00:26:13;101308.97;;;23.29;36.68
26697;BME280;14312;52.614;13.496;2022-07-29T00:29:00;101304.94;;;23.26;36.94
26697;BME280;14312;52.614;13.496;2022-07-29T00:31:46;101302.06;;;23.23;37.06
26697;BME280;14312;52.614;13.496;2022-07-29T00:34:32;101302.66;;;23.20;37.03
26697;BME280;14312;52.614;13.496;2022-07-29T00:37:36;101297.34;;;23.15;37.13
26697;BME280;14312;52.614;13.496;2022-07-29T00:40:22;101295.72;;;23.14;37.38
26697;BME280;14312;52.614;13.496;2022-07-29T00:43:08;101294.72;;;23.10;37.27
26697;BME280;14312;52.614;13.496;2022-07-29T00:45:54;101294.25;;;23.08;37.80
26697;BME280;14312;52.614;13.496;2022-07-29T00:48:40;101290.50;;;23.03;37.61
26697;BME280;14312;52.614;13.496;2022-07-29T00:51:26;101285.72;;;23.00;37.61
26697;BME280;14312;52.614;13.496;2022-07-29T00:54:12;101284.69;;;22.96;37.75
26697;BME280;14312;52.614;13.496;2022-07-29T00:56:59;101288.53;;;22.95;37.90
26697;BME280;14312;52.614;13.496;2022-07-29T00:59:45;101285.94;;;22.90;37.93
26697;BME280;14312;52.614;13.496;2022-07-29T01:02:31;101293.56;;;22.88;37.95
26697;BME280;14312;52.614;13.496;2022-07-29T01:05:19;101284.94;;;22.86;38.09
26697;BME280;14312;52.614;13.496;2022-07-29T01:08:07;101287.16;;;22.84;38.25
26697;BME280;14312;52.614;13.496;2022-07-29T01:10:53;101279.13;;;22.79;38.30
26697;BME280;14312;52.614;13.496;2022-07-29T01:13:40;101280.22;;;22.78;38.35
26697;BME280;14312;52.614;13.496;2022-07-29T01:16:39;101277.50;;;22.78;38.53
26697;BME280;14312;52.614;13.496;2022-07-29T01:20:10;101274.28;;;22.76;38.63
26697;BME280;14312;52.614;13.496;2022-07-29T01:23:05;101265.22;;;22.67;38.53
26697;BME280;14312;52.614;13.496;2022-07-29T01:29:25;101267.75;;;22.63;38.77
26697;BME280;14312;52.614;13.496;2022-07-29T01:32:20;101261.00;;;22.61;39.15
26697;BME280;14312;52.614;13.496;2022-07-29T01:38:13;101252.16;;;22.55;39.18
26697;BME280;14312;52.614;13.496;2022-07-29T01:41:09;101255.19;;;22.54;39.19
26697;BME280;14312;52.614;13.496;2022-07-29T01:44:02;101247.66;;;22.51;39.18
26697;BME280;14312;52.614;13.496;2022-07-29T01:46:56;101235.97;;;22.50;39.42
26697;BME280;14312;52.614;13.496;2022-07-29T01:49:47;101234.66;;;22.48;39.28
26697;BME280;14312;52.614;13.496;2022-07-29T01:52:45;101224.44;;;22.45;39.18
26697;BME280;14312;52.614;13.496;2022-07-29T01:55:39;101207.94;;;22.41;39.59
26697;BME280;14312;52.614;13.496;2022-07-29T01:58:26;101198.47;;;22.39;39.61
26697;BME280;14312;52.614;13.496;2022-07-29T02:01:14;101192.03;;;22.35;39.52
26697;BME280;14312;52.614;13.496;2022-07-29T02:04:03;101189.63;;;22.33;39.90
26697;BME280;14312;52.614;13.496;2022-07-29T02:06:52;101189.44;;;22.30;39.99
26697;BME280;14312;52.614;13.496;2022-07-29T02:09:41;101190.84;;;22.27;40.20
26697;BME280;14312;52.614;13.496;2022-07-29T02:12:28;101190.66;;;22.23;40.06
26697;BME280;14312;52.614;13.496;2022-07-29T02:15:16;101189.66;;;22.19;39.88
26697;BME280;14312;52.614;13.496;2022-07-29T02:18:09;101186.44;;;22.17;40.13
26697;BME280;14312;52.614;13.496;2022-07-29T02:20:58;101183.84;;;22.12;40.12
26697;BME280;14312;52.614;13.496;2022-07-29T02:23:45;101195.31;;;22.09;40.07
26697;BME280;14312;52.614;13.496;2022-07-29T02:26:32;101204.06;;;22.06;40.01
26697;BME280;14312;52.614;13.496;2022-07-29T02:29:21;101199.72;;;22.05;40.41
26697;BME280;14312;52.614;13.496;2022-07-29T02:32:10;101205.78;;;22.02;40.39
26697;BME280;14312;52.614;13.496;2022-07-29T02:34:58;101198.22;;;21.99;40.42
26697;BME280;14312;52.614;13.496;2022-07-29T02:37:45;101203.41;;;21.96;40.41
26697;BME280;14312;52.614;13.496;2022-07-29T02:40:53;101211.06;;;21.94;40.45
26697;BME280;14312;52.614;13.496;2022-07-29T02:43:40;101219.50;;;21.92;40.52
26697;BME280;14312;52.614;13.496;2022-07-29T02:46:31;101208.94;;;21.91;40.65
26697;BME280;14312;52.614;13.496;2022-07-29T02:49:38;101204.31;;;21.91;40.30
26697;BME280;14312;52.614;13.496;2022-07-29T02:52:31;101217.69;;;21.87;41.04
26697;BME280;14312;52.614;13.496;2022-07-29T02:55:32;101213.38;;;21.86;40.72
26697;BME280;14312;52.614;13.496;2022-07-29T02:58:27;101212.34;;;21.82;40.76
26697;BME280;14312;52.614;13.496;2022-07-29T03:01:21;101216.97;;;21.82;41.07
26697;BME280;14312;52.614;13.496;2022-07-29T03:04:09;101214.88;;;21.79;41.01
26697;BME280;14312;52.614;13.496;2022-07-29T03:06:58;101214.06;;;21.78;41.08
26697;BME280;14312;52.614;13.496;2022-07-29T03:09:45;101203.50;;;21.77;41.32
26697;BME280;14312;52.614;13.496;2022-07-29T03:12:31;101198.69;;;21.74;41.20
26697;BME280;14312;52.614;13.496;2022-07-29T03:15:18;101209.56;;;21.74;41.17
26697;BME280;14312;52.614;13.496;2022-07-29T03:18:05;101203.31;;;21.73;41.34
26697;BME280;14312;52.614;13.496;2022-07-29T03:20:52;101204.72;;;21.71;41.12
26697;BME280;14312;52.614;13.496;2022-07-29T03:23:43;101200.91;;;21.72;41.86
26697;BME280;14312;52.614;13.496;2022-07-29T03:26:30;101207.72;;;21.69;41.55
26697;BME280;14312;52.614;13.496;2022-07-29T03:29:16;101199.88;;;21.68;41.39
26697;BME280;14312;52.614;13.496;2022-07-29T03:32:03;101206.13;;;21.68;41.59
26697;BME280;14312;52.614;13.496;2022-07-29T03:34:50;101189.03;;;21.68;41.53
26697;BME280;14312;52.614;13.496;2022-07-29T03:37:36;101192.06;;;21.66;41.55
26697;BME280;14312;52.614;13.496;2022-07-29T03:40:30;101193.34;;;21.69;41.80
26697;BME280;14312;52.614;13.496;2022-07-29T03:43:18;101189.66;;;21.65;41.85
26697;BME280;14312;52.614;13.496;2022-07-29T03:46:06;101189.66;;;21.65;41.88
26697;BME280;14312;52.614;13.496;2022-07-29T03:48:56;101185.31;;;21.64;41.84
26697;BME280;14312;52.614;13.496;2022-07-29T03:51:44;101192.47;;;21.60;41.72
26697;BME280;14312;52.614;13.496;2022-07-29T03:54:30;101180.81;;;21.59;41.80
26697;BME280;14312;52.614;13.496;2022-07-29T03:57:18;101175.06;;;21.61;42.08
26697;BME280;14312;52.614;13.496;2022-07-29T04:00:06;101182.38;;;21.60;42.08
26697;BME280;14312;52.614;13.496;2022-07-29T04:02:53;101178.38;;;21.58;41.93
26697;BME280;14312;52.614;13.496;2022-07-29T04:05:38;101175.69;;;21.58;42.24
26697;BME280;14312;52.614;13.496;2022-07-29T04:08:24;101184.91;;;21.57;41.93
26697;BME280;14312;52.614;13.496;2022-07-29T04:11:10;101184.09;;;21.56;42.29
26697;BME280;14312;52.614;13.496;2022-07-29T04:13:56;101187.63;;;21.57;42.33
26697;BME280;14312;52.614;13.496;2022-07-29T04:16:42;101184.41;;;21.55;42.42
26697;BME280;14312;52.614;13.496;2022-07-29T04:19:27;101189.00;;;21.54;42.31
26697;BME280;14312;52.614;13.496;2022-07-29T04:22:13;101192.81;;;21.53;42.20
26697;BME280;14312;52.614;13.496;2022-07-29T04:24:59;101197.47;;;21.53;42.55
26697;BME280;14312;52.614;13.496;2022-07-29T04:27:45;101192.06;;;21.53;42.40
26697;BME280;14312;52.614;13.496;2022-07-29T04:30:46;101197.47;;;21.53;42.34
26697;BME280;14312;52.614;13.496;2022-07-29T04:33:32;101202.91;;;21.53;42.60
26697;BME280;14312;52.614;13.496;2022-07-29T04:36:17;101206.09;;;21.55;42.64
26697;BME280;14312;52.614;13.496;2022-07-29T04:39:03;101201.78;;;21.54;42.45
26697;BME280;14312;52.614;13.496;2022-07-29T04:41:50;101196.84;;;21.56;42.56
26697;BME280;14312;52.614;13.496;2022-07-29T04:44:35;101201.19;;;21.57;42.78
26697;BME280;14312;52.614;13.496;2022-07-29T04:47:21;101197.09;;;21.59;42.76
26697;BME280;14312;52.614;13.496;2022-07-29T04:50:08;101202.19;;;21.61;42.93
26697;BME280;14312;52.614;13.496;2022-07-29T04:52:54;101201.09;;;21.62;42.67
26697;BME280;14312;52.614;13.496;2022-07-29T04:55:40;101196.47;;;21.62;42.93
26697;BME280;14312;52.614;13.496;2022-07-29T04:58:26;101206.72;;;21.65;42.86
26697;BME280;14312;52.614;13.496;2022-07-29T05:01:12;101203.72;;;21.67;42.98
26697;BME280;14312;52.614;13.496;2022-07-29T05:03:58;101205.31;;;21.68;42.90
26697;BME280;14312;52.614;13.496;2022-07-29T05:06:43;101212.84;;;21.71;42.96
26697;BME280;14312;52.614;13.496;2022-07-29T05:09:29;101208.75;;;21.73;42.84
26697;BME280;14312;52.614;13.496;2022-07-29T05:12:17;101200.28;;;21.75;42.70
26697;BME280;14312;52.614;13.496;2022-07-29T05:15:03;101205.13;;;21.78;42.97
26697;BME280;14312;52.614;13.496;2022-07-29T05:17:49;101199.09;;;21.81;42.65
26697;BME280;14312;52.614;13.496;2022-07-29T05:20:35;101202.31;;;21.83;42.91
26697;BME280;14312;52.614;13.496;2022-07-29T05:23:21;101201.72;;;21.86;42.99
26697;BME280;14312;52.614;13.496;2022-07-29T05:26:07;101195.66;;;21.89;43.12
26697;BME280;14312;52.614;13.496;2022-07-29T05:28:53;101196.69;;;21.93;43.34
26697;BME280;14312;52.614;13.496;2022-07-29T05:31:40;101193.69;;;21.95;43.18
26697;BME280;14312;52.614;13.496;2022-07-29T05:34:25;101189.56;;;21.97;43.02
26697;BME280;14312;52.614;13.496;2022-07-29T05:37:11;101187.06;;;22.01;43.31
26697;BME280;14312;52.614;13.496;2022-07-29T05:39:59;101191.06;;;22.03;43.26
26697;BME280;14312;52.614;13.496;2022-07-29T05:42:44;101192.91;;;22.08;43.19
26697;BME280;14312;52.614;13.496;2022-07-29T05:45:30;101193.06;;;22.11;43.23
26697;BME280;14312;52.614;13.496;2022-07-29T05:48:16;101186.25;;;22.14;43.20
26697;BME280;14312;52.614;13.496;2022-07-29T05:51:02;101181.50;;;22.19;43.21
26697;BME280;14312;52.614;13.496;2022-07-29T05:53:48;101180.91;;;22.22;43.11
26697;BME280;14312;52.614;13.496;2022-07-29T05:56:35;101176.97;;;22.29;43.00
26697;BME280;14312;52.614;13.496;2022-07-29T05:59:21;101184.81;;;22.30;42.92
26697;BME280;14312;52.614;13.496;2022-07-29T06:02:07;101191.25;;;22.34;43.03
26697;BME280;14312;52.614;13.496;2022-07-29T06:04:53;101183.31;;;22.38;43.00
26697;BME280;14312;52.614;13.496;2022-07-29T06:07:39;101194.03;;;22.43;42.94
26697;BME280;14312;52.614;13.496;2022-07-29T06:10:25;101202.06;;;22.48;42.96
26697;BME280;14312;52.614;13.496;2022-07-29T06:13:11;101198.44;;;22.52;42.80
26697;BME280;14312;52.614;13.496;2022-07-29T06:15:56;101198.63;;;22.56;42.77
26697;BME280;14312;52.614;13.496;2022-07-29T06:18:42;101194.19;;;22.60;42.86
26697;BME280;14312;52.614;13.496;2022-07-29T06:21:28;101195.19;;;22.64;42.91
26697;BME280;14312;52.614;13.496;2022-07-29T06:24:14;101204.84;;;22.70;42.82
26697;BME280;14312;52.614;13.496;2022-07-29T06:27:00;101207.47;;;22.75;42.74
26697;BME280;14312;52.614;13.496;2022-07-29T06:29:46;101199.19;;;22.80;42.66
26697;BME280;14312;52.614;13.496;2022-07-29T06:32:33;101206.13;;;22.86;42.76
26697;BME280;14312;52.614;13.496;2022-07-29T06:35:19;101198.94;;;22.90;42.57
26697;BME280;14312;52.614;13.496;2022-07-29T06:38:04;101201.53;;;22.95;42.76
26697;BME280;14312;52.614;13.496;2022-07-29T06:40:50;101192.94;;;23.02;42.89
26697;BME280;14312;52.614;13.496;2022-07-29T06:43:45;101191.72;;;23.08;42.70
26697;BME280;14312;52.614;13.496;2022-07-29T06:46:31;101196.72;;;23.15;42.51
26697;BME280;14312;52.614;13.496;2022-07-29T06:49:18;101187.81;;;23.23;42.61
26697;BME280;14312;52.614;13.496;2022-07-29T06:52:04;101189.28;;;23.29;42.44
26697;BME280;14312;52.614;13.496;2022-07-29T06:57:35;101188.41;;;23.42;42.42
26697;BME280;14312;52.614;13.496;2022-07-29T07:00:21;101196.94;;;23.49;42.41
26697;BME280;14312;52.614;13.496;2022-07-29T07:03:07;101190.25;;;23.55;42.27
26697;BME280;14312;52.614;13.496;2022-07-29T07:05:54;101190.91;;;23.61;42.29
26697;BME280;14312;52.614;13.496;2022-07-29T07:08:40;101198.16;;;23.65;42.13
26697;BME280;14312;52.614;13.496;2022-07-29T07:11:26;101198.50;;;23.72;42.03
26697;BME280;14312;52.614;13.496;2022-07-29T07:14:11;101199.47;;;23.76;42.15
26697;BME280;14312;52.614;13.496;2022-07-29T07:16:57;101201.44;;;23.85;42.11
26697;BME280;14312;52.614;13.496;2022-07-29T07:19:45;101204.81;;;23.90;41.89
26697;BME280;14312;52.614;13.496;2022-07-29T07:22:31;101208.19;;;23.96;42.19
26697;BME280;14312;52.614;13.496;2022-07-29T07:25:17;101193.00;;;24.03;42.02
26697;BME280;14312;52.614;13.496;2022-07-29T07:28:03;101200.38;;;24.11;42.18
26697;BME280;14312;52.614;13.496;2022-07-29T07:30:49;101201.53;;;24.19;41.74
26697;BME280;14312;52.614;13.496;2022-07-29T07:33:35;101204.63;;;24.26;41.83
26697;BME280;14312;52.614;13.496;2022-07-29T07:36:21;101196.78;;;24.33;41.73
26697;BME280;14312;52.614;13.496;2022-07-29T07:39:07;101201.44;;;24.41;41.66
26697;BME280;14312;52.614;13.496;2022-07-29T07:41:53;101199.19;;;24.52;41.30
26697;BME280;14312;52.614;13.496;2022-07-29T07:44:39;101198.09;;;24.62;41.40
26697;BME280;14312;52.614;13.496;2022-07-29T07:47:25;101205.16;;;24.71;41.08
26697;BME280;14312;52.614;13.496;2022-07-29T07:50:11;101192.63;;;24.79;40.82
26697;BME280;14312;52.614;13.496;2022-07-29T07:52:57;101196.16;;;24.88;40.62
26697;BME280;14312;52.614;13.496;2022-07-29T07:55:43;101194.25;;;24.97;40.44
26697;BME280;14312;52.614;13.496;2022-07-29T07:58:29;101186.06;;;25.06;40.30
26697;BME280;14312;52.614;13.496;2022-07-29T08:01:15;101184.91;;;25.15;40.20
26697;BME280;14312;52.614;13.496;2022-07-29T08:04:04;101191.63;;;25.26;40.18
26697;BME280;14312;52.614;13.496;2022-07-29T08:06:50;101191.25;;;25.36;39.78
26697;BME280;14312;52.614;13.496;2022-07-29T08:09:36;101187.56;;;25.50;39.65
26697;BME280;14312;52.614;13.496;2022-07-29T08:12:22;101187.69;;;25.62;39.54
26697;BME280;14312;52.614;13.496;2022-07-29T08:15:08;101188.13;;;25.72;39.21
26697;BME280;14312;52.614;13.496;2022-07-29T08:17:54;101177.63;;;25.83;39.27
26697;BME280;14312;52.614;13.496;2022-07-29T08:20:39;101176.59;;;25.96;38.89
26697;BME280;14312;52.614;13.496;2022-07-29T08:23:26;101173.16;;;26.08;38.88
26697;BME280;14312;52.614;13.496;2022-07-29T08:26:13;101180.63;;;26.20;38.89
26697;BME280;14312;52.614;13.496;2022-07-29T08:28:59;101170.94;;;26.31;37.83
26697;BME280;14312;52.614;13.496;2022-07-29T08:31:44;101172.16;;;26.42;38.22
26697;BME280;14312;52.614;13.496;2022-07-29T08:34:31;101170.63;;;26.53;37.54
26697;BME280;14312;52.614;13.496;2022-07-29T08:37:18;101165.19;;;26.65;37.76
26697;BME280;14312;52.614;13.496;2022-07-29T08:40:04;101169.13;;;26.76;37.38
26697;BME280;14312;52.614;13.496;2022-07-29T08:42:51;101169.84;;;26.85;36.71
26697;BME280;14312;52.614;13.496;2022-07-29T08:45:44;101165.25;;;26.98;36.19
26697;BME280;14312;52.614;13.496;2022-07-29T08:48:30;101163.56;;;27.06;36.87
26697;BME280;14312;52.614;13.496;2022-07-29T08:51:19;101162.47;;;27.19;36.26
26697;BME280;14312;52.614;13.496;2022-07-29T08:54:05;101159.50;;;27.24;36.13
26697;BME280;14312;52.614;13.496;2022-07-29T08:56:52;101155.19;;;27.35;35.92
26697;BME280;14312;52.614;13.496;2022-07-29T08:59:40;101148.13;;;27.46;35.65
26697;BME280;14312;52.614;13.496;2022-07-29T09:02:28;101151.91;;;27.54;34.87
26697;BME280;14312;52.614;13.496;2022-07-29T09:05:14;101150.22;;;27.61;35.18
26697;BME280;14312;52.614;13.496;2022-07-29T09:08:01;101145.44;;;27.71;34.76
26697;BME280;14312;52.614;13.496;2022-07-29T09:10:47;101144.94;;;27.81;34.17
26697;BME280;14312;52.614;13.496;2022-07-29T09:13:34;101141.75;;;27.91;34.09
26697;BME280;14312;52.614;13.496;2022-07-29T09:16:20;101147.91;;;28.00;33.71
26697;BME280;14312;52.614;13.496;2022-07-29T09:19:19;101143.22;;;28.13;32.08
26697;BME280;14312;52.614;13.496;2022-07-29T09:22:06;101142.19;;;28.17;33.03
26697;BME280;14312;52.614;13.496;2022-07-29T09:24:52;101144.00;;;28.25;33.25
26697;BME280;14312;52.614;13.496;2022-07-29T09:27:40;101145.81;;;28.33;33.29
26697;BME280;14312;52.614;13.496;2022-07-29T09:30:26;101142.91;;;28.42;33.18
26697;BME280;14312;52.614;13.496;2022-07-29T09:33:11;101143.13;;;28.49;32.87
26697;BME280;14312;52.614;13.496;2022-07-29T09:36:04;101145.03;;;28.61;31.67
26697;BME280;14312;52.614;13.496;2022-07-29T09:39:00;101142.94;;;28.70;31.48
26697;BME280;14312;52.614;13.496;2022-07-29T09:41:52;101140.06;;;28.78;31.27
26697;BME280;14312;52.614;13.496;2022-07-29T09:44:48;101139.56;;;28.89;30.56
26697;BME280;14312;52.614;13.496;2022-07-29T09:47:46;101133.66;;;29.02;29.09
26697;BME280;14312;52.614;13.496;2022-07-29T09:50:38;101135.44;;;29.10;31.00
26697;BME280;14312;52.614;13.496;2022-07-29T09:53:33;101130.31;;;29.25;30.81
26697;BME280;14312;52.614;13.496;2022-07-29T09:56:19;101138.25;;;29.30;31.01
26697;BME280;14312;52.614;13.496;2022-07-29T09:59:06;101134.59;;;29.38;30.96
26697;BME280;14312;52.614;13.496;2022-07-29T10:01:52;101133.16;;;29.44;30.42
26697;BME280;14312;52.614;13.496;2022-07-29T10:04:40;101141.22;;;29.52;30.38
26697;BME280;14312;52.614;13.496;2022-07-29T10:07:43;101131.66;;;29.62;29.75
26697;BME280;14312;52.614;13.496;2022-07-29T10:10:33;101131.19;;;29.60;30.07
26697;BME280;14312;52.614;13.496;2022-07-29T10:13:19;101123.81;;;29.64;30.25
26697;BME280;14312;52.614;13.496;2022-07-29T10:16:05;101127.47;;;29.68;29.75
26697;BME280;14312;52.614;13.496;2022-07-29T10:18:52;101122.03;;;29.72;29.54
26697;BME280;14312;52.614;13.496;2022-07-29T10:21:38;101126.50;;;29.76;29.52
26697;BME280;14312;52.614;13.496;2022-07-29T10:24:29;101131.75;;;29.85;29.10
26697;BME280;14312;52.614;13.496;2022-07-29T10:27:15;101127.16;;;29.89;29.06
26697;BME280;14312;52.614;13.496;2022-07-29T10:30:05;101117.16;;;29.96;28.71
26697;BME280;14312;52.614;13.496;2022-07-29T10:42:29;101114.88;;;30.37;28.19
26697;BME280;14312;52.614;13.496;2022-07-29T10:45:17;101096.19;;;30.46;28.66
26697;BME280;14312;52.614;13.496;2022-07-29T10:48:04;101099.53;;;30.55;28.65
26697;BME280;14312;52.614;13.496;2022-07-29T10:50:58;101102.84;;;30.64;27.90
26697;BME280;14312;52.614;13.496;2022-07-29T10:53:50;101092.78;;;30.72;27.43
26697;BME280;14312;52.614;13.496;2022-07-29T10:56:36;101090.03;;;30.72;27.44
26697;BME280;14312;52.614;13.496;2022-07-29T10:59:22;101097.59;;;30.79;27.52
26697;BME280;14312;52.614;13.496;2022-07-29T11:05:21;101091.38;;;30.82;27.32
26697;BME280;14312;52.614;13.496;2022-07-29T11:14:05;101097.03;;;30.89;27.44
26697;BME280;14312;52.614;13.496;2022-07-29T11:17:02;101085.78;;;30.97;25.63
26697;BME280;14312;52.614;13.496;2022-07-29T11:19:49;101089.72;;;31.00;27.22
26697;BME280;14312;52.614;13.496;2022-07-29T11:22:36;101092.16;;;31.05;27.25
26697;BME280;14312;52.614;13.496;2022-07-29T11:25:23;101084.09;;;31.12;26.99
26697;BME280;14312;52.614;13.496;2022-07-29T11:28:16;101081.44;;;31.19;25.74
26697;BME280;14312;52.614;13.496;2022-07-29T11:31:05;101077.09;;;31.18;26.76
26697;BME280;14312;52.614;13.496;2022-07-29T11:33:53;101088.53;;;31.20;26.68
26697;BME280;14312;52.614;13.496;2022-07-29T11:42:44;101079.97;;;31.25;27.26
26697;BME280;14312;52.614;13.496;2022-07-29T11:45:45;101075.72;;;31.31;26.77
26697;BME280;14312;52.614;13.496;2022-07-29T11:48:32;101073.41;;;31.33;27.14
26697;BME280;14312;52.614;13.496;2022-07-29T11:51:18;101075.84;;;31.38;27.40
26697;BME280;14312;52.614;13.496;2022-07-29T11:54:04;101072.03;;;31.46;27.29
26697;BME280;14312;52.614;13.496;2022-07-29T11:56:51;101066.63;;;31.54;27.31
26697;BME280;14312;52.614;13.496;2022-07-29T11:59:41;101067.59;;;31.65;26.88
26697;BME280;14312;52.614;13.496;2022-07-29T12:02:41;101061.44;;;31.75;26.88
26697;BME280;14312;52.614;13.496;2022-07-29T12:05:45;101067.47;;;31.84;26.73
26697;BME280;14312;52.614;13.496;2022-07-29T12:08:40;101067.94;;;31.89;27.16
26697;BME280;14312;52.614;13.496;2022-07-29T12:11:26;101064.84;;;31.95;27.25
26697;BME280;14312;52.614;13.496;2022-07-29T12:14:28;101048.06;;;32.07;27.19
26697;BME280;14312;52.614;13.496;2022-07-29T12:17:30;101057.25;;;32.14;27.04
26697;BME280;14312;52.614;13.496;2022-07-29T12:20:26;101050.66;;;32.22;26.87
26697;BME280;14312;52.614;13.496;2022-07-29T12:23:12;101056.19;;;32.26;27.27
26697;BME280;14312;52.614;13.496;2022-07-29T12:25:59;101047.22;;;32.33;27.41
26697;BME280;14312;52.614;13.496;2022-07-29T12:28:45;101039.03;;;32.40;27.32
26697;BME280;14312;52.614;13.496;2022-07-29T12:31:31;101045.78;;;32.46;27.44
26697;BME280;14312;52.614;13.496;2022-07-29T12:34:16;101042.69;;;32.54;27.07
26697;BME280;14312;52.614;13.496;2022-07-29T12:37:03;101042.00;;;32.61;27.22
26697;BME280;14312;52.614;13.496;2022-07-29T12:39:49;101027.91;;;32.70;27.32
26697;BME280;14312;52.614;13.496;2022-07-29T12:42:35;101052.38;;;32.71;27.14
26697;BME280;14312;52.614;13.496;2022-07-29T12:45:29;101036.72;;;32.82;26.82
26697;BME280;14312;52.614;13.496;2022-07-29T12:48:17;101023.28;;;32.84;26.92
26697;BME280;14312;52.614;13.496;2022-07-29T12:51:05;101021.75;;;32.90;26.96
26697;BME280;14312;52.614;13.496;2022-07-29T12:54:11;101030.09;;;32.97;26.32
26697;BME280;14312;52.614;13.496;2022-07-29T12:56:59;101026.56;;;32.97;27.17
26697;BME280;14312;52.614;13.496;2022-07-29T12:59:45;101025.41;;;33.01;27.27
26697;BME280;14312;52.614;13.496;2022-07-29T13:02:43;101025.84;;;33.03;26.81
26697;BME280;14312;52.614;13.496;2022-07-29T13:05:43;101018.00;;;33.13;26.95
26697;BME280;14312;52.614;13.496;2022-07-29T13:08:29;101015.59;;;33.11;27.03
26697;BME280;14312;52.614;13.496;2022-07-29T13:11:32;101018.06;;;33.20;26.74
26697;BME280;14312;52.614;13.496;2022-07-29T13:14:41;101018.91;;;33.24;26.91
26697;BME280;14312;52.614;13.496;2022-07-29T13:17:27;101008.63;;;33.21;26.86
26697;BME280;14312;52.614;13.496;2022-07-29T13:20:13;101012.59;;;33.27;27.17
26697;BME280;14312;52.614;13.496;2022-07-29T13:23:00;101003.97;;;33.32;27.01
26697;BME280;14312;52.614;13.496;2022-07-29T13:25:46;100999.66;;;33.38;27.35
26697;BME280;14312;52.614;13.496;2022-07-29T13:28:32;101001.66;;;33.45;27.33
26697;BME280;14312;52.614;13.496;2022-07-29T13:31:18;100998.56;;;33.53;27.26
26697;BME280;14312;52.614;13.496;2022-07-29T13:34:03;100994.63;;;33.61;27.25
26697;BME280;14312;52.614;13.496;2022-07-29T13:36:49;100997.41;;;33.68;26.97
26697;BME280;14312;52.614;13.496;2022-07-29T13:39:35;100995.50;;;33.72;26.89
26697;BME280;14312;52.614;13.496;2022-07-29T13:42:23;100990.38;;;33.78;26.55
26697;BME280;14312;52.614;13.496;2022-07-29T13:45:09;100986.44;;;33.83;26.50
26697;BME280;14312;52.614;13.496;2022-07-29T13:47:56;100982.13;;;33.85;26.25
26697;BME280;14312;52.614;13.496;2022-07-29T13:50:42;100973.44;;;33.87;26.48
26697;BME280;14312;52.614;13.496;2022-07-29T13:53:27;100979.75;;;33.87;26.33
26697;BME280;14312;52.614;13.496;2022-07-29T13:56:14;100979.75;;;33.91;26.15
26697;BME280;14312;52.614;13.496;2022-07-29T13:59:00;100974.63;;;33.93;26.35
26697;BME280;14312;52.614;13.496;2022-07-29T14:01:45;100975.06;;;33.95;26.22
26697;BME280;14312;52.614;13.496;2022-07-29T14:04:32;100968.72;;;33.98;26.39
26697;BME280;14312;52.614;13.496;2022-07-29T14:07:17;100969.13;;;34.00;26.28
26697;BME280;14312;52.614;13.496;2022-07-29T14:10:04;100975.06;;;34.02;26.20
26697;BME280;14312;52.614;13.496;2022-07-29T14:12:49;100972.69;;;34.04;26.45
26697;BME280;14312;52.614;13.496;2022-07-29T14:15:35;100969.56;;;34.09;26.37
26697;BME280;14312;52.614;13.496;2022-07-29T14:18:21;100962.44;;;34.15;26.32
26697;BME280;14312;52.614;13.496;2022-07-29T14:21:07;100959.28;;;34.20;26.17
26697;BME280;14312;52.614;13.496;2022-07-29T14:23:53;100948.25;;;34.27;26.10
26697;BME280;14312;52.614;13.496;2022-07-29T14:26:40;100959.34;;;34.34;26.04
26697;BME280;14312;52.614;13.496;2022-07-29T14:29:25;100948.28;;;34.45;26.08
26697;BME280;14312;52.614;13.496;2022-07-29T14:32:11;100951.44;;;34.50;25.74
26697;BME280;14312;52.614;13.496;2022-07-29T14:34:58;100957.00;;;34.57;25.58
26697;BME280;14312;52.614;13.496;2022-07-29T14:37:44;100953.81;;;34.63;25.57
26697;BME280;14312;52.614;13.496;2022-07-29T14:40:30;100947.09;;;34.67;25.42
26697;BME280;14312;52.614;13.496;2022-07-29T14:43:15;100951.47;;;34.72;25.19
26697;BME280;14312;52.614;13.496;2022-07-29T14:46:01;100942.75;;;34.77;25.68
26697;BME280;14312;52.614;13.496;2022-07-29T14:48:47;100933.28;;;34.81;25.07
26697;BME280;14312;52.614;13.496;2022-07-29T14:51:33;100943.56;;;34.88;25.36
26697;BME280;14312;52.614;13.496;2022-07-29T14:54:19;100937.22;;;34.94;25.63
26697;BME280;14312;52.614;13.496;2022-07-29T14:57:05;100936.41;;;35.01;25.41
26697;BME280;14312;52.614;13.496;2022-07-29T14:59:51;100945.06;;;35.10;24.97
26697;BME280;14312;52.614;13.496;2022-07-29T15:02:37;100938.75;;;35.17;24.79